createdAt,value
2023-05-19T00:01:24.931Z,13.30
2023-05-19T00:03:55.070Z,13.30
2023-05-19T00:06:25.378Z,13.30
2023-05-19T00:09:10.156Z,13.30
2023-05-19T00:11:40.125Z,13.30
2023-05-19T00:14:09.886Z,13.20
2023-05-19T00:16:38.726Z,13.30
2023-05-19T00:19:10.354Z,13.20
2023-05-19T00:21:39.038Z,13.30
2023-05-19T00:24:07.155Z,13.30
2023-05-19T00:26:34.183Z,13.20
2023-05-19T00:29:01.262Z,13.20
2023-05-19T00:31:28.539Z,13.20
2023-05-19T00:33:55.630Z,13.20
2023-05-19T00:36:22.584Z,13.20
2023-05-19T00:38:51.064Z,13.20
2023-05-19T00:41:18.450Z,13.30
2023-05-19T00:43:45.694Z,13.30
2023-05-19T00:46:12.687Z,13.30
2023-05-19T00:48:44.742Z,13.30
2023-05-19T00:51:16.582Z,13.30
2023-05-19T00:53:49.002Z,13.30
2023-05-19T00:56:17.380Z,13.30
2023-05-19T00:58:45.781Z,13.30
2023-05-19T01:01:17.060Z,13.40
2023-05-19T01:03:44.916Z,13.30
2023-05-19T01:06:12.374Z,13.30
2023-05-19T01:08:39.903Z,13.30
2023-05-19T01:11:08.270Z,13.30
2023-05-19T01:13:36.934Z,13.30
2023-05-19T01:16:22.353Z,13.30
2023-05-19T01:19:10.909Z,13.30
2023-05-19T01:22:13.107Z,13.30
2023-05-19T01:25:19.996Z,13.30
2023-05-19T01:28:09.959Z,13.30
2023-05-19T01:30:53.488Z,13.30
2023-05-19T01:33:24.056Z,13.30
2023-05-19T01:35:55.318Z,13.30
2023-05-19T01:38:23.536Z,13.30
2023-05-19T01:40:52.361Z,13.30
2023-05-19T01:43:24.225Z,13.30
2023-05-19T01:45:52.053Z,13.30
2023-05-19T01:48:19.651Z,13.30
2023-05-19T01:50:47.037Z,13.30
2023-05-19T01:53:14.120Z,13.30
2023-05-19T01:55:49.525Z,13.40
2023-05-19T01:58:51.607Z,13.30
2023-05-19T02:01:54.041Z,13.40
2023-05-19T02:04:45.113Z,13.40
2023-05-19T02:07:35.958Z,13.40
2023-05-19T02:10:14.533Z,13.40
2023-05-19T02:12:41.928Z,13.40
2023-05-19T02:15:16.497Z,13.40
2023-05-19T02:17:51.745Z,13.40
2023-05-19T02:20:19.076Z,13.40
2023-05-19T02:22:46.082Z,13.40
2023-05-19T02:25:12.947Z,13.40
2023-05-19T02:27:40.553Z,13.40
2023-05-19T02:30:09.738Z,13.40
2023-05-19T02:32:36.847Z,13.30
2023-05-19T02:35:04.851Z,13.30
2023-05-19T02:37:35.050Z,13.30
2023-05-19T02:40:01.913Z,13.30
2023-05-19T02:42:28.787Z,13.30
2023-05-19T02:44:55.721Z,13.30
2023-05-19T02:47:22.900Z,13.30
2023-05-19T02:49:49.769Z,13.30
2023-05-19T02:52:16.627Z,13.30
2023-05-19T02:54:43.563Z,13.30
2023-05-19T02:57:11.131Z,13.30
2023-05-19T02:59:38.151Z,13.30
2023-05-19T03:02:05.343Z,13.30
2023-05-19T03:04:32.337Z,13.30
2023-05-19T03:06:59.249Z,13.30
2023-05-19T03:09:26.591Z,13.20
2023-05-19T03:11:53.489Z,13.20
2023-05-19T03:14:23.791Z,13.20
2023-05-19T03:16:51.137Z,13.20
2023-05-19T03:19:18.213Z,13.20
2023-05-19T03:21:45.348Z,13.20
2023-05-19T03:24:12.218Z,13.20
2023-05-19T03:26:39.188Z,13.20
2023-05-19T03:29:06.166Z,13.20
2023-05-19T03:31:32.978Z,13.20
2023-05-19T03:33:59.916Z,13.10
2023-05-19T03:36:32.009Z,13.10
2023-05-19T03:38:59.362Z,13.20
2023-05-19T03:41:26.346Z,13.10
2023-05-19T03:43:53.211Z,13.10
2023-05-19T03:46:20.065Z,13.10
2023-05-19T03:48:46.983Z,13.10
2023-05-19T03:51:13.819Z,13.10
2023-05-19T03:53:41.279Z,13.10
2023-05-19T03:56:11.623Z,13.10
2023-05-19T03:58:40.748Z,13.10
2023-05-19T04:01:07.722Z,13.10
2023-05-19T04:03:34.800Z,13.10
2023-05-19T04:06:01.709Z,13.10
2023-05-19T04:08:28.610Z,13.10
2023-05-19T04:10:55.430Z,13.20
2023-05-19T04:13:22.390Z,13.20
2023-05-19T04:15:49.413Z,13.20
2023-05-19T04:18:16.294Z,13.20
2023-05-19T04:20:43.185Z,13.20
2023-05-19T04:23:10.600Z,13.30
2023-05-19T04:25:38.145Z,13.20
2023-05-19T04:28:05.054Z,13.30
2023-05-19T04:30:32.124Z,13.30
2023-05-19T04:33:01.141Z,13.30
2023-05-19T04:35:28.193Z,13.40
2023-05-19T04:37:55.613Z,13.40
2023-05-19T04:40:23.889Z,13.40
2023-05-19T04:42:54.068Z,13.40
2023-05-19T04:45:21.036Z,13.40
2023-05-19T04:47:48.309Z,13.40
2023-05-19T04:50:16.800Z,13.50
2023-05-19T04:52:45.736Z,13.50
2023-05-19T04:55:13.256Z,13.50
2023-05-19T04:57:40.507Z,13.50
2023-05-19T05:00:12.241Z,13.50
2023-05-19T05:02:39.248Z,13.50
2023-05-19T05:05:07.177Z,13.50
2023-05-19T05:07:34.060Z,13.60
2023-05-19T05:10:01.161Z,13.60
2023-05-19T05:12:28.411Z,13.60
2023-05-19T05:14:55.643Z,13.70
2023-05-19T05:17:22.985Z,13.70
2023-05-19T05:19:50.363Z,13.70
2023-05-19T05:22:17.736Z,13.80
2023-05-19T05:24:45.110Z,13.90
2023-05-19T05:27:12.064Z,13.90
2023-05-19T05:29:39.074Z,13.90
2023-05-19T05:32:06.249Z,14.00
2023-05-19T05:34:33.459Z,14.00
2023-05-19T05:39:41.189Z,14.10
2023-05-19T05:42:33.905Z,14.20
2023-05-19T05:45:00.810Z,14.20
2023-05-19T05:47:28.145Z,14.20
2023-05-19T05:49:55.490Z,14.30
2023-05-19T05:52:29.604Z,14.30
2023-05-19T05:54:57.123Z,14.30
2023-05-19T05:57:24.663Z,14.30
2023-05-19T05:59:51.546Z,14.30
2023-05-19T06:02:18.611Z,14.40
2023-05-19T06:04:45.549Z,14.50
2023-05-19T06:07:12.435Z,14.50
2023-05-19T06:09:39.420Z,14.50
2023-05-19T06:12:06.839Z,14.60
2023-05-19T06:14:33.753Z,14.70
2023-05-19T06:17:00.679Z,14.70
2023-05-19T06:19:27.714Z,14.80
2023-05-19T06:21:54.641Z,14.90
2023-05-19T06:24:21.558Z,14.90
2023-05-19T06:26:48.471Z,14.90
2023-05-19T06:29:15.532Z,15.00
2023-05-19T06:31:42.593Z,15.10
2023-05-19T06:34:12.394Z,15.10
2023-05-19T06:36:41.391Z,15.20
2023-05-19T06:39:09.813Z,15.30
2023-05-19T06:41:36.779Z,15.30
2023-05-19T06:44:07.925Z,15.40
2023-05-19T06:46:35.538Z,15.40
2023-05-19T06:49:02.556Z,15.40
2023-05-19T06:51:29.435Z,15.40
2023-05-19T06:53:56.430Z,15.50
2023-05-19T06:56:23.326Z,15.40
2023-05-19T06:58:50.267Z,15.50
2023-05-19T07:01:17.259Z,15.60
2023-05-19T07:03:44.277Z,15.60
2023-05-19T07:06:11.493Z,15.70
2023-05-19T07:08:38.397Z,15.80
2023-05-19T07:11:05.833Z,15.90
2023-05-19T07:13:32.991Z,16.00
2023-05-19T07:15:59.988Z,16.20
2023-05-19T07:18:26.988Z,16.20
2023-05-19T07:20:53.940Z,16.40
2023-05-19T07:23:21.098Z,16.50
2023-05-19T07:25:47.980Z,16.60
2023-05-19T07:28:14.960Z,16.70
2023-05-19T07:30:41.955Z,16.70
2023-05-19T07:33:08.935Z,16.90
2023-05-19T07:35:35.922Z,17.00
2023-05-19T07:38:03.214Z,17.00
2023-05-19T07:40:30.149Z,17.10
2023-05-19T07:42:57.188Z,17.10
2023-05-19T07:45:24.086Z,17.10
2023-05-19T07:47:51.174Z,17.20
2023-05-19T07:50:18.277Z,17.20
2023-05-19T07:52:45.165Z,17.30
2023-05-19T07:55:12.313Z,17.40
2023-05-19T07:57:39.161Z,17.50
2023-05-19T08:00:07.754Z,17.50
2023-05-19T08:02:34.701Z,17.60
2023-05-19T08:05:01.626Z,17.70
2023-05-19T08:07:28.528Z,17.80
2023-05-19T08:09:55.820Z,17.90
2023-05-19T08:12:22.738Z,17.90
2023-05-19T08:14:49.666Z,18.00
2023-05-19T08:17:16.570Z,18.00
2023-05-19T08:19:43.549Z,18.00
2023-05-19T08:22:10.474Z,17.80
2023-05-19T08:24:38.615Z,17.80
2023-05-19T08:27:06.787Z,17.70
2023-05-19T08:29:33.726Z,17.60
2023-05-19T08:32:01.736Z,17.50
2023-05-19T08:34:28.605Z,17.40
2023-05-19T08:36:57.791Z,17.30
2023-05-19T08:39:27.086Z,17.30
2023-05-19T08:41:54.662Z,17.20
2023-05-19T08:44:22.480Z,17.20
2023-05-19T08:46:53.178Z,17.10
2023-05-19T08:49:28.325Z,17.00
2023-05-19T08:52:27.847Z,17.00
2023-05-19T08:55:07.514Z,17.00
2023-05-19T08:57:34.756Z,16.90
2023-05-19T09:00:03.158Z,16.90
2023-05-19T09:02:30.948Z,16.80
2023-05-19T09:04:58.498Z,16.70
2023-05-19T09:07:26.649Z,16.60
2023-05-19T09:09:53.614Z,16.60
2023-05-19T09:12:21.349Z,16.50
2023-05-19T09:14:48.744Z,16.50
2023-05-19T09:17:15.845Z,16.50
2023-05-19T09:19:48.112Z,16.40
2023-05-19T09:22:19.167Z,16.40
2023-05-19T09:24:47.155Z,16.50
2023-05-19T09:27:23.489Z,16.40
2023-05-19T09:29:50.981Z,16.40
2023-05-19T09:32:28.142Z,16.40
2023-05-19T09:34:55.218Z,16.50
2023-05-19T09:37:28.551Z,16.50
2023-05-19T09:39:55.957Z,16.60
2023-05-19T09:42:27.713Z,16.70
2023-05-19T09:45:04.866Z,16.70
2023-05-19T09:47:36.905Z,16.80
2023-05-19T09:50:10.452Z,16.80
2023-05-19T09:52:39.246Z,16.90
2023-05-19T09:55:11.514Z,16.90
2023-05-19T09:57:40.199Z,16.90
2023-05-19T10:00:14.344Z,16.90
2023-05-19T10:02:46.116Z,17.00
2023-05-19T10:05:20.835Z,17.00
2023-05-19T10:07:52.972Z,17.00
2023-05-19T10:10:20.974Z,17.00
2023-05-19T10:12:49.938Z,17.00
2023-05-19T10:15:20.748Z,17.10
2023-05-19T10:17:51.247Z,17.10
2023-05-19T10:20:18.794Z,17.10
2023-05-19T10:22:46.828Z,17.10
2023-05-19T10:25:15.222Z,17.10
2023-05-19T10:28:05.696Z,17.10
2023-05-19T10:30:38.960Z,17.20
2023-05-19T10:33:12.934Z,17.20
2023-05-19T10:36:27.784Z,17.30
2023-05-19T10:39:00.624Z,17.40
2023-05-19T10:42:08.989Z,17.40
2023-05-19T10:45:05.539Z,17.40
2023-05-19T10:47:33.629Z,17.40
2023-05-19T10:50:01.064Z,17.50
2023-05-19T10:52:30.943Z,17.60
2023-05-19T10:54:58.288Z,17.70
2023-05-19T10:57:28.596Z,17.80
2023-05-19T10:59:57.367Z,17.90
2023-05-19T11:02:41.517Z,17.90
2023-05-19T11:05:14.985Z,18.00
2023-05-19T11:08:06.090Z,18.00
2023-05-19T11:10:33.225Z,18.00
2023-05-19T11:13:00.800Z,18.00
2023-05-19T11:15:28.453Z,18.00
2023-05-19T11:17:55.773Z,17.90
2023-05-19T11:20:28.226Z,17.90
2023-05-19T11:23:21.780Z,18.00
2023-05-19T11:25:54.364Z,18.00
2023-05-19T11:28:27.963Z,18.10
2023-05-19T11:30:57.840Z,18.10
2023-05-19T11:33:29.182Z,18.10
2023-05-19T11:35:58.519Z,18.20
2023-05-19T11:38:28.167Z,18.30
2023-05-19T11:40:56.800Z,18.30
2023-05-19T11:43:25.733Z,18.40
2023-05-19T11:45:54.744Z,18.40
2023-05-19T11:48:22.615Z,18.40
2023-05-19T11:50:50.835Z,18.50
2023-05-19T11:53:19.513Z,18.40
2023-05-19T11:55:48.434Z,18.40
2023-05-19T11:58:16.285Z,18.40
2023-05-19T12:00:48.425Z,18.40
2023-05-19T12:03:15.922Z,18.40
2023-05-19T12:05:48.725Z,18.40
2023-05-19T12:08:18.724Z,18.40
2023-05-19T12:10:51.889Z,18.40
2023-05-19T12:13:19.973Z,18.40
2023-05-19T12:15:47.025Z,18.40
2023-05-19T12:18:14.215Z,18.50
2023-05-19T12:20:41.436Z,18.50
2023-05-19T12:23:09.002Z,18.40
2023-05-19T12:25:36.393Z,18.40
2023-05-19T12:28:03.795Z,18.40
2023-05-19T12:30:32.834Z,18.20
2023-05-19T12:33:02.227Z,18.30
2023-05-19T12:35:34.050Z,18.30
2023-05-19T12:38:07.355Z,18.20
2023-05-19T12:40:36.227Z,18.20
2023-05-19T12:43:04.055Z,18.20
2023-05-19T12:45:39.643Z,18.20
2023-05-19T12:48:12.265Z,18.10
2023-05-19T12:50:39.495Z,18.10
2023-05-19T12:53:10.990Z,18.10
2023-05-19T12:55:45.704Z,18.10
2023-05-19T12:58:13.423Z,18.10
2023-05-19T13:00:43.717Z,18.20
2023-05-19T13:03:20.787Z,18.20
2023-05-19T13:05:50.552Z,18.30
2023-05-19T13:08:21.530Z,18.40
2023-05-19T13:10:51.737Z,18.60
2023-05-19T13:13:19.286Z,18.70
2023-05-19T13:15:50.453Z,18.90
2023-05-19T13:18:17.880Z,19.00
2023-05-19T13:20:46.793Z,19.10
2023-05-19T13:23:14.551Z,19.20
2023-05-19T13:25:42.411Z,19.40
2023-05-19T13:28:09.836Z,19.60
2023-05-19T13:30:39.607Z,19.80
2023-05-19T13:33:07.487Z,20.00
2023-05-19T13:35:37.615Z,20.20
2023-05-19T13:38:10.291Z,20.50
2023-05-19T13:40:39.521Z,20.70
2023-05-19T13:43:07.347Z,20.90
2023-05-19T13:45:34.520Z,21.20
2023-05-19T13:48:02.199Z,21.30
2023-05-19T13:50:29.197Z,21.40
2023-05-19T13:52:56.308Z,21.50
2023-05-19T13:55:23.677Z,21.60
2023-05-19T13:57:50.949Z,21.70
2023-05-19T14:00:19.244Z,21.70
2023-05-19T14:02:46.463Z,21.70
2023-05-19T14:05:13.607Z,21.60
2023-05-19T14:07:40.608Z,21.50
2023-05-19T14:10:08.570Z,21.40
2023-05-19T14:12:49.482Z,21.30
2023-05-19T14:15:23.737Z,21.10
2023-05-19T14:17:50.834Z,20.90
2023-05-19T14:20:18.011Z,20.80
2023-05-19T14:22:44.982Z,20.80
2023-05-19T14:25:11.928Z,20.80
2023-05-19T14:27:40.114Z,20.80
2023-05-19T14:30:08.612Z,20.80
2023-05-19T14:32:38.940Z,20.90
2023-05-19T14:35:06.657Z,20.90
2023-05-19T14:37:33.635Z,21.00
2023-05-19T14:40:00.695Z,20.90
2023-05-19T14:42:27.549Z,20.90
2023-05-19T14:44:54.434Z,20.90
2023-05-19T14:47:21.455Z,20.80
2023-05-19T14:49:48.640Z,20.80
2023-05-19T14:52:15.525Z,20.80
2023-05-19T14:54:42.440Z,20.70
2023-05-19T14:57:09.407Z,20.60
2023-05-19T14:59:39.530Z,20.40
2023-05-19T15:02:07.139Z,20.30
2023-05-19T15:04:35.268Z,20.20
2023-05-19T15:09:31.880Z,19.90
2023-05-19T15:12:01.089Z,19.90
2023-05-19T15:14:30.117Z,20.00
2023-05-19T15:16:58.319Z,20.00
2023-05-19T15:19:26.084Z,20.10
2023-05-19T15:21:53.213Z,20.20
2023-05-19T15:24:20.155Z,20.30
2023-05-19T15:26:47.538Z,20.40
2023-05-19T15:29:14.512Z,20.50
2023-05-19T15:31:41.726Z,20.70
2023-05-19T15:34:09.035Z,20.80
2023-05-19T15:36:35.913Z,20.80
2023-05-19T15:39:03.744Z,20.90
2023-05-19T15:41:30.724Z,20.90
2023-05-19T15:44:00.081Z,20.90
2023-05-19T15:46:27.187Z,20.90
2023-05-19T15:48:54.526Z,21.00
2023-05-19T15:51:21.577Z,21.00
2023-05-19T15:53:48.691Z,21.00
2023-05-19T15:56:15.825Z,21.10
2023-05-19T15:58:42.785Z,21.20
2023-05-19T16:01:09.901Z,21.40
2023-05-19T16:03:37.060Z,21.50
2023-05-19T16:06:04.442Z,21.70
2023-05-19T16:08:31.384Z,22.00
2023-05-19T16:10:58.282Z,22.20
2023-05-19T16:13:25.213Z,22.60
2023-05-19T16:15:52.707Z,22.80
2023-05-19T16:18:19.724Z,23.10
2023-05-19T16:20:46.658Z,23.20
2023-05-19T16:23:13.539Z,23.30
2023-05-19T16:25:41.429Z,23.20
2023-05-19T16:28:08.497Z,23.10
2023-05-19T16:30:35.743Z,23.00
2023-05-19T16:33:04.412Z,22.80
2023-05-19T16:35:31.413Z,22.60
2023-05-19T16:37:58.484Z,22.40
2023-05-19T16:40:25.655Z,22.30
2023-05-19T16:42:55.784Z,22.10
2023-05-19T16:45:22.695Z,22.00
2023-05-19T16:47:49.556Z,21.80
2023-05-19T16:50:16.554Z,21.70
2023-05-19T16:52:43.465Z,21.60
2023-05-19T16:55:11.070Z,21.40
2023-05-19T16:57:37.966Z,21.40
2023-05-19T17:00:05.476Z,21.30
2023-05-19T17:02:32.496Z,21.20
2023-05-19T17:04:59.569Z,21.10
2023-05-19T17:07:29.024Z,21.00
2023-05-19T17:09:56.221Z,20.90
2023-05-19T17:12:23.368Z,20.90
2023-05-19T17:14:52.032Z,20.80
2023-05-19T17:17:19.334Z,20.70
2023-05-19T17:19:46.882Z,20.60
2023-05-19T17:22:13.928Z,20.60
2023-05-19T17:24:41.353Z,20.50
2023-05-19T17:27:08.414Z,20.40
2023-05-19T17:29:35.350Z,20.30
2023-05-19T17:32:04.351Z,20.20
2023-05-19T17:34:31.308Z,20.20
2023-05-19T17:36:58.233Z,20.10
2023-05-19T17:39:25.213Z,20.00
2023-05-19T17:41:52.071Z,20.00
2023-05-19T17:44:18.937Z,19.90
2023-05-19T17:46:45.888Z,19.90
2023-05-19T17:49:13.616Z,19.80
2023-05-19T17:51:40.901Z,19.80
2023-05-19T17:54:08.156Z,19.70
2023-05-19T17:56:43.010Z,19.70
2023-05-19T17:59:10.901Z,19.60
2023-05-19T18:01:38.112Z,19.60
2023-05-19T18:04:05.661Z,19.60
2023-05-19T18:06:33.118Z,19.60
2023-05-19T18:09:05.916Z,19.50
2023-05-19T18:11:32.799Z,19.50
2023-05-19T18:13:59.649Z,19.50
2023-05-19T18:16:27.318Z,19.40
2023-05-19T18:18:54.288Z,19.40
2023-05-19T18:21:21.423Z,19.40
2023-05-19T18:23:48.508Z,19.30
2023-05-19T18:26:16.310Z,19.30
2023-05-19T18:28:43.509Z,19.30
2023-05-19T18:31:15.742Z,19.30
2023-05-19T18:33:44.250Z,19.30
2023-05-19T18:36:11.217Z,19.30
2023-05-19T18:38:38.046Z,19.20
2023-05-19T18:41:10.003Z,19.20
2023-05-19T18:43:36.923Z,19.20
2023-05-19T18:46:03.854Z,19.10
2023-05-19T18:48:31.265Z,19.10
2023-05-19T18:50:58.159Z,19.10
2023-05-19T18:53:25.584Z,19.10
2023-05-19T18:55:52.460Z,19.10
2023-05-19T18:58:19.287Z,19.00
2023-05-19T19:00:46.178Z,19.00
2023-05-19T19:03:13.190Z,19.00
2023-05-19T19:05:42.958Z,19.00
2023-05-19T19:08:09.796Z,18.90
2023-05-19T19:10:39.137Z,18.90
2023-05-19T19:13:06.512Z,18.90
2023-05-19T19:15:33.485Z,18.90
2023-05-19T19:18:00.569Z,18.90
2023-05-19T19:20:27.677Z,18.90
2023-05-19T19:22:54.650Z,18.80
2023-05-19T19:25:23.486Z,18.80
2023-05-19T19:27:51.216Z,18.80
2023-05-19T19:30:18.209Z,18.80
2023-05-19T19:32:45.164Z,18.80
2023-05-19T19:35:12.198Z,18.80
2023-05-19T19:37:39.089Z,18.70
2023-05-19T19:40:06.918Z,18.70
2023-05-19T19:42:34.181Z,18.70
2023-05-19T19:45:01.284Z,18.60
2023-05-19T19:47:28.205Z,18.60
2023-05-19T19:49:55.968Z,18.50
2023-05-19T19:52:22.820Z,18.50
2023-05-19T19:54:49.760Z,18.50
2023-05-19T19:57:17.364Z,18.50
2023-05-19T19:59:44.256Z,18.40
2023-05-19T20:02:11.398Z,18.40
2023-05-19T20:04:38.563Z,18.40
2023-05-19T20:07:05.465Z,18.40
2023-05-19T20:09:32.316Z,18.40
2023-05-19T20:11:59.152Z,18.30
2023-05-19T20:14:26.064Z,18.40
2023-05-19T20:16:53.017Z,18.30
2023-05-19T20:19:20.040Z,18.30
2023-05-19T20:21:47.005Z,18.30
2023-05-19T20:24:13.879Z,18.30
2023-05-19T20:26:41.205Z,18.30
2023-05-19T20:29:08.153Z,18.30
2023-05-19T20:31:35.056Z,18.30
2023-05-19T20:34:02.139Z,18.20
2023-05-19T20:36:29.282Z,18.20
2023-05-19T20:38:56.210Z,18.20
2023-05-19T20:41:23.545Z,18.20
2023-05-19T20:43:50.464Z,18.20
2023-05-19T20:46:17.384Z,18.10
2023-05-19T20:48:44.317Z,18.10
2023-05-19T20:51:11.209Z,18.10
2023-05-19T20:53:38.068Z,18.10
2023-05-19T20:56:06.758Z,18.10
2023-05-19T20:58:33.645Z,18.10
2023-05-19T21:01:00.534Z,18.10
2023-05-19T21:03:28.408Z,18.00
2023-05-19T21:05:56.367Z,18.00
2023-05-19T21:08:24.258Z,18.00
2023-05-19T21:10:51.557Z,18.00
2023-05-19T21:13:18.892Z,18.00
2023-05-19T21:15:45.802Z,18.00
2023-05-19T21:18:12.965Z,18.00
2023-05-19T21:20:39.887Z,18.00
2023-05-19T21:23:06.872Z,18.00
2023-05-19T21:25:33.955Z,18.00
2023-05-19T21:28:01.035Z,18.00
2023-05-19T21:30:27.944Z,18.00
2023-05-19T21:32:54.983Z,18.00
2023-05-19T21:35:21.893Z,18.00
2023-05-19T21:37:48.772Z,18.00
2023-05-19T21:40:16.110Z,18.00
2023-05-19T21:42:42.991Z,18.00
2023-05-19T21:45:10.609Z,18.00
2023-05-19T21:47:37.584Z,18.00
2023-05-19T21:50:04.978Z,17.80
2023-05-19T21:52:31.830Z,18.00
2023-05-19T21:54:58.739Z,18.00
2023-05-19T21:57:25.666Z,17.90
2023-05-19T21:59:52.524Z,17.90
2023-05-19T22:02:19.419Z,17.90
2023-05-19T22:04:46.364Z,17.90
2023-05-19T22:07:13.268Z,17.90
2023-05-19T22:09:40.165Z,17.80
2023-05-19T22:12:07.799Z,17.80
2023-05-19T22:14:35.783Z,17.80
2023-05-19T22:17:02.692Z,17.80
2023-05-19T22:19:29.748Z,17.60
2023-05-19T22:22:09.839Z,17.60
2023-05-19T22:24:40.639Z,17.60
2023-05-19T22:27:08.294Z,17.50
2023-05-19T22:29:38.320Z,17.40
2023-05-19T22:32:09.284Z,17.40
2023-05-19T22:34:36.277Z,17.30
2023-05-19T22:37:03.245Z,17.30
2023-05-19T22:39:30.088Z,17.20
2023-05-19T22:41:56.896Z,17.20
2023-05-19T22:44:23.815Z,17.10
2023-05-19T22:46:50.670Z,17.10
2023-05-19T22:49:17.542Z,17.00
2023-05-19T22:51:44.407Z,17.00
2023-05-19T22:54:11.310Z,17.00
2023-05-19T22:56:38.235Z,16.90
2023-05-19T22:59:08.216Z,16.90
2023-05-19T23:01:35.159Z,16.90
2023-05-19T23:04:02.110Z,16.90
2023-05-19T23:06:29.002Z,16.90
2023-05-19T23:09:03.424Z,16.80
2023-05-19T23:11:30.477Z,16.90
2023-05-19T23:13:57.341Z,16.90
2023-05-19T23:16:24.308Z,16.90
2023-05-19T23:18:51.212Z,16.90
2023-05-19T23:21:18.153Z,16.90
2023-05-19T23:23:45.043Z,16.80
2023-05-19T23:26:13.462Z,16.90
2023-05-19T23:28:42.947Z,16.80
2023-05-19T23:31:10.542Z,16.80
2023-05-19T23:33:37.456Z,16.80
2023-05-19T23:36:10.082Z,16.80
2023-05-19T23:38:37.733Z,16.70
2023-05-19T23:41:05.147Z,16.70
2023-05-19T23:43:32.482Z,16.70
2023-05-19T23:45:59.885Z,16.70
2023-05-19T23:48:29.397Z,16.60
2023-05-19T23:50:58.222Z,16.60
2023-05-19T23:53:25.733Z,16.60
2023-05-19T23:55:52.637Z,16.60
2023-05-19T23:58:19.563Z,16.50
